sensor_id;sensor_type;location;lat;lon;timestamp;temperature;humidity
19403;DHT22;9837;48.888;8.998;2023-12-20T00:30:28;10.80;71.10
19403;DHT22;9837;48.888;8.998;2023-12-20T00:33:05;10.90;71.10
19403;DHT22;9837;48.888;8.998;2023-12-20T00:35:49;10.90;71.10
19403;DHT22;9837;48.888;8.998;2023-12-20T00:38:20;11.00;71.30
19403;DHT22;9837;48.888;8.998;2023-12-20T00:41:09;10.50;71.30
19403;DHT22;9837;48.888;8.998;2023-12-20T00:49:41;10.90;71.80
19403;DHT22;9837;48.888;8.998;2023-12-20T01:05:42;10.70;73.10
19403;DHT22;9837;48.888;8.998;2023-12-20T01:09:06;11.10;73.40
19403;DHT22;9837;48.888;8.998;2023-12-20T01:22:57;10.80;73.40
19403;DHT22;9837;48.888;8.998;2023-12-20T01:25:26;10.80;73.40
19403;DHT22;9837;48.888;8.998;2023-12-20T02:05:53;10.50;77.20
19403;DHT22;9837;48.888;8.998;2023-12-20T02:13:40;10.50;77.10
19403;DHT22;9837;48.888;8.998;2023-12-20T02:48:18;9.90;78.70
19403;DHT22;9837;48.888;8.998;2023-12-20T06:28:36;10.00;79.60
19403;DHT22;9837;48.888;8.998;2023-12-20T07:25:07;9.40;81.20
19403;DHT22;9837;48.888;8.998;2023-12-20T08:32:27;9.60;74.70
19403;DHT22;9837;48.888;8.998;2023-12-20T09:10:22;9.60;74.20
19403;DHT22;9837;48.888;8.998;2023-12-20T09:42:04;9.50;70.50
19403;DHT22;9837;48.888;8.998;2023-12-20T10:13:28;8.90;72.80
19403;DHT22;9837;48.888;8.998;2023-12-20T10:21:06;9.60;70.90
19403;DHT22;9837;48.888;8.998;2023-12-20T10:27:16;9.30;70.90
19403;DHT22;9837;48.888;8.998;2023-12-20T10:30:16;9.40;69.70
19403;DHT22;9837;48.888;8.998;2023-12-20T10:37:01;9.70;66.60
19403;DHT22;9837;48.888;8.998;2023-12-20T10:43:21;9.80;64.90
19403;DHT22;9837;48.888;8.998;2023-12-20T10:46:57;9.70;65.50
19403;DHT22;9837;48.888;8.998;2023-12-20T10:52:47;9.70;65.20
19403;DHT22;9837;48.888;8.998;2023-12-20T11:02:52;10.00;64.30
19403;DHT22;9837;48.888;8.998;2023-12-20T11:15:13;9.50;68.10
19403;DHT22;9837;48.888;8.998;2023-12-20T11:20:21;9.70;66.70
19403;DHT22;9837;48.888;8.998;2023-12-20T11:22:53;9.90;66.90
19403;DHT22;9837;48.888;8.998;2023-12-20T11:28:10;9.90;65.90
19403;DHT22;9837;48.888;8.998;2023-12-20T11:30:46;9.90;65.20
19403;DHT22;9837;48.888;8.998;2023-12-20T11:33:13;9.90;65.50
19403;DHT22;9837;48.888;8.998;2023-12-20T11:35:55;10.00;65.10
19403;DHT22;9837;48.888;8.998;2023-12-20T11:38:22;10.20;64.80
19403;DHT22;9837;48.888;8.998;2023-12-20T11:40:49;10.20;65.00
19403;DHT22;9837;48.888;8.998;2023-12-20T11:46:07;10.20;65.90
19403;DHT22;9837;48.888;8.998;2023-12-20T11:48:41;10.00;65.40
19403;DHT22;9837;48.888;8.998;2023-12-20T11:51:10;9.90;65.90
19403;DHT22;9837;48.888;8.998;2023-12-20T11:56:30;9.90;66.50
19403;DHT22;9837;48.888;8.998;2023-12-20T12:15:59;9.60;65.40
19403;DHT22;9837;48.888;8.998;2023-12-20T12:20:50;10.00;65.20
19403;DHT22;9837;48.888;8.998;2023-12-20T12:23:24;10.00;65.80
19403;DHT22;9837;48.888;8.998;2023-12-20T12:28:16;10.70;63.30
19403;DHT22;9837;48.888;8.998;2023-12-20T12:30:42;10.70;62.90
19403;DHT22;9837;48.888;8.998;2023-12-20T12:33:07;9.90;64.40
19403;DHT22;9837;48.888;8.998;2023-12-20T12:35:34;9.80;65.00
19403;DHT22;9837;48.888;8.998;2023-12-20T12:38:00;9.80;65.60
19403;DHT22;9837;48.888;8.998;2023-12-20T12:40:26;9.50;65.40
19403;DHT22;9837;48.888;8.998;2023-12-20T12:42:52;9.50;66.70
19403;DHT22;9837;48.888;8.998;2023-12-20T12:45:18;9.60;66.90
19403;DHT22;9837;48.888;8.998;2023-12-20T12:47:44;9.40;67.10
19403;DHT22;9837;48.888;8.998;2023-12-20T12:50:10;9.40;67.40
19403;DHT22;9837;48.888;8.998;2023-12-20T12:52:36;9.50;66.30
19403;DHT22;9837;48.888;8.998;2023-12-20T12:55:01;9.40;67.00
19403;DHT22;9837;48.888;8.998;2023-12-20T12:57:27;9.60;67.00
19403;DHT22;9837;48.888;8.998;2023-12-20T12:59:52;9.90;66.10
19403;DHT22;9837;48.888;8.998;2023-12-20T13:02:18;9.90;64.90
19403;DHT22;9837;48.888;8.998;2023-12-20T13:04:43;10.10;64.90
19403;DHT22;9837;48.888;8.998;2023-12-20T13:07:10;10.20;65.60
19403;DHT22;9837;48.888;8.998;2023-12-20T13:09:39;10.40;63.00
19403;DHT22;9837;48.888;8.998;2023-12-20T13:12:05;10.30;62.90
19403;DHT22;9837;48.888;8.998;2023-12-20T13:14:35;10.30;63.60
19403;DHT22;9837;48.888;8.998;2023-12-20T13:17:02;10.20;64.00
19403;DHT22;9837;48.888;8.998;2023-12-20T13:19:29;10.30;62.90
19403;DHT22;9837;48.888;8.998;2023-12-20T13:21:55;10.40;62.70
19403;DHT22;9837;48.888;8.998;2023-12-20T13:24:21;10.40;63.50
19403;DHT22;9837;48.888;8.998;2023-12-20T13:26:46;10.20;63.60
19403;DHT22;9837;48.888;8.998;2023-12-20T13:29:12;10.20;64.00
19403;DHT22;9837;48.888;8.998;2023-12-20T13:31:37;10.20;65.50
19403;DHT22;9837;48.888;8.998;2023-12-20T13:34:03;9.90;64.60
19403;DHT22;9837;48.888;8.998;2023-12-20T13:36:29;10.10;64.40
19403;DHT22;9837;48.888;8.998;2023-12-20T13:38:54;10.10;65.10
19403;DHT22;9837;48.888;8.998;2023-12-20T13:41:20;9.70;65.10
19403;DHT22;9837;48.888;8.998;2023-12-20T13:43:45;9.80;65.90
19403;DHT22;9837;48.888;8.998;2023-12-20T13:46:11;9.80;66.60
19403;DHT22;9837;48.888;8.998;2023-12-20T13:48:36;9.70;67.10
19403;DHT22;9837;48.888;8.998;2023-12-20T13:51:03;9.80;66.70
19403;DHT22;9837;48.888;8.998;2023-12-20T13:53:28;9.70;66.50
19403;DHT22;9837;48.888;8.998;2023-12-20T13:55:54;9.60;67.10
19403;DHT22;9837;48.888;8.998;2023-12-20T13:58:19;9.40;68.00
19403;DHT22;9837;48.888;8.998;2023-12-20T14:00:45;9.30;68.70
19403;DHT22;9837;48.888;8.998;2023-12-20T14:03:11;9.20;69.10
19403;DHT22;9837;48.888;8.998;2023-12-20T14:05:36;9.30;68.60
19403;DHT22;9837;48.888;8.998;2023-12-20T14:08:02;9.30;69.40
19403;DHT22;9837;48.888;8.998;2023-12-20T14:10:28;9.30;69.80
19403;DHT22;9837;48.888;8.998;2023-12-20T14:12:54;9.20;70.00
19403;DHT22;9837;48.888;8.998;2023-12-20T14:15:20;8.90;71.70
19403;DHT22;9837;48.888;8.998;2023-12-20T14:17:45;9.20;72.70
19403;DHT22;9837;48.888;8.998;2023-12-20T14:20:11;10.40;74.00
19403;DHT22;9837;48.888;8.998;2023-12-20T14:22:40;8.90;73.20
19403;DHT22;9837;48.888;8.998;2023-12-20T14:25:11;9.40;72.30
19403;DHT22;9837;48.888;8.998;2023-12-20T14:27:38;9.00;71.40
19403;DHT22;9837;48.888;8.998;2023-12-20T14:30:03;9.10;71.50
19403;DHT22;9837;48.888;8.998;2023-12-20T14:32:29;9.10;71.10
19403;DHT22;9837;48.888;8.998;2023-12-20T14:34:54;9.20;70.80
19403;DHT22;9837;48.888;8.998;2023-12-20T14:37:20;9.20;70.90
19403;DHT22;9837;48.888;8.998;2023-12-20T14:39:45;9.10;71.10
19403;DHT22;9837;48.888;8.998;2023-12-20T14:42:11;9.20;71.10
19403;DHT22;9837;48.888;8.998;2023-12-20T14:44:40;9.20;70.80
19403;DHT22;9837;48.888;8.998;2023-12-20T14:47:06;9.20;70.90
19403;DHT22;9837;48.888;8.998;2023-12-20T14:49:32;9.20;71.00
19403;DHT22;9837;48.888;8.998;2023-12-20T14:51:57;9.00;71.60
19403;DHT22;9837;48.888;8.998;2023-12-20T14:54:23;8.70;72.80
19403;DHT22;9837;48.888;8.998;2023-12-20T14:56:49;8.70;72.90
19403;DHT22;9837;48.888;8.998;2023-12-20T14:59:14;8.70;73.70
19403;DHT22;9837;48.888;8.998;2023-12-20T15:01:40;8.90;73.20
19403;DHT22;9837;48.888;8.998;2023-12-20T15:04:09;8.90;72.90
19403;DHT22;9837;48.888;8.998;2023-12-20T15:06:34;9.10;72.60
19403;DHT22;9837;48.888;8.998;2023-12-20T15:09:00;9.10;72.20
19403;DHT22;9837;48.888;8.998;2023-12-20T15:11:26;9.30;71.70
19403;DHT22;9837;48.888;8.998;2023-12-20T15:13:52;9.20;71.80
19403;DHT22;9837;48.888;8.998;2023-12-20T15:16:22;9.20;72.00
19403;DHT22;9837;48.888;8.998;2023-12-20T15:18:48;9.40;71.10
19403;DHT22;9837;48.888;8.998;2023-12-20T15:21:15;9.60;71.10
19403;DHT22;9837;48.888;8.998;2023-12-20T15:23:40;9.30;71.10
19403;DHT22;9837;48.888;8.998;2023-12-20T15:26:18;9.10;71.80
19403;DHT22;9837;48.888;8.998;2023-12-20T15:28:43;9.00;72.30
19403;DHT22;9837;48.888;8.998;2023-12-20T15:31:09;9.00;72.30
19403;DHT22;9837;48.888;8.998;2023-12-20T15:33:34;8.70;73.20
19403;DHT22;9837;48.888;8.998;2023-12-20T15:36:01;8.70;73.40
19403;DHT22;9837;48.888;8.998;2023-12-20T15:38:26;8.70;74.10
19403;DHT22;9837;48.888;8.998;2023-12-20T15:50:01;8.60;75.00
19403;DHT22;9837;48.888;8.998;2023-12-20T15:56:41;8.90;71.80
19403;DHT22;9837;48.888;8.998;2023-12-20T15:59:30;8.90;72.50
19403;DHT22;9837;48.888;8.998;2023-12-20T16:02:15;8.60;73.30
19403;DHT22;9837;48.888;8.998;2023-12-20T16:07:29;8.70;72.20
19403;DHT22;9837;48.888;8.998;2023-12-20T16:10:17;8.60;72.60
19403;DHT22;9837;48.888;8.998;2023-12-20T16:13:08;8.70;73.20
19403;DHT22;9837;48.888;8.998;2023-12-20T16:15:44;8.80;71.50
19403;DHT22;9837;48.888;8.998;2023-12-20T16:18:22;8.80;71.50
19403;DHT22;9837;48.888;8.998;2023-12-20T16:20:51;9.20;71.00
19403;DHT22;9837;48.888;8.998;2023-12-20T16:23:17;8.90;71.60
19403;DHT22;9837;48.888;8.998;2023-12-20T16:25:45;9.10;70.10
19403;DHT22;9837;48.888;8.998;2023-12-20T16:28:26;9.20;69.70
19403;DHT22;9837;48.888;8.998;2023-12-20T16:42:57;9.30;68.50
19403;DHT22;9837;48.888;8.998;2023-12-20T16:45:23;9.20;69.00
19403;DHT22;9837;48.888;8.998;2023-12-20T16:55:10;8.90;69.60
19403;DHT22;9837;48.888;8.998;2023-12-20T16:57:37;8.90;70.20
19403;DHT22;9837;48.888;8.998;2023-12-20T17:36:42;9.10;69.50
19403;DHT22;9837;48.888;8.998;2023-12-20T18:18:09;9.30;68.00
19403;DHT22;9837;48.888;8.998;2023-12-20T20:20:06;8.70;73.00
19403;DHT22;9837;48.888;8.998;2023-12-20T20:42:11;8.20;74.90
19403;DHT22;9837;48.888;8.998;2023-12-20T21:21:11;8.40;73.70
19403;DHT22;9837;48.888;8.998;2023-12-20T21:48:03;8.70;71.70
19403;DHT22;9837;48.888;8.998;2023-12-20T22:17:16;8.50;71.90
19403;DHT22;9837;48.888;8.998;2023-12-20T23:45:04;8.90;72.30
